Time;durP1;ratioP1;P1;durP2;ratioP2;P2;SDS_P1;SDS_P2;PMS_P1;PMS_P2;Temp;Humidity;BMP_temperature;BMP_pressure;BME280_temperature;BME280_humidity;BME280_pressure;Samples;Min_cycle;Max_cycle;Signal;HPM_P1;HPM_P2
2022/03/03 00:03:12;;;;;;;;;;;;;;;0.90;76.69;101018.81;10253813;28;19926;-66
2022/03/03 00:08:15;;;;;;;;;;;;;;;0.82;77.07;101030.44;10257059;28;19933;-68
2022/03/03 00:13:20;;;;;;;;;;;;;;;0.80;78.65;101020.16;10256427;29;19922;-67
2022/03/03 00:18:23;;;;;;;;;;;;;;;0.84;79.86;101011.81;10257190;28;20259;-67
2022/03/03 00:23:26;;;;;;;;;;;;;;;0.72;78.41;101007.88;10256814;28;19933;-65
2022/03/03 00:28:30;;;;;;;;;;;;;;;0.65;77.98;100995.69;10256488;28;19922;-63
2022/03/03 00:33:33;;;;;;;;;;;;;;;0.66;79.24;100979.53;10256424;28;19933;-67
2022/03/03 00:38:37;;;;;;;;;;;;;;;0.72;79.22;100964.47;10256598;28;19955;-66
2022/03/03 00:43:41;;;;;;;;;;;;;;;0.68;78.94;100962.59;10256333;28;19923;-66
2022/03/03 00:48:44;;;;;;;;;;;;;;;0.77;80.43;100963.84;10256516;28;20246;-66
2022/03/03 00:53:47;;;;;;;;;;;;;;;0.87;80.40;100949.72;10263991;28;19922;-69
2022/03/03 00:58:52;;;;;;;;;;;;;;;0.89;80.40;100948.09;10264034;28;19942;-69
2022/03/03 01:03:55;;;;;;;;;;;;;;;0.89;79.83;100945.53;10263810;28;19933;-64
2022/03/03 01:08:58;;;;;;;;;;;;;;;0.81;80.80;100922.25;10263629;28;20254;-65
2022/03/03 01:14:02;;;;;;;;;;;;;;;0.82;80.94;100936.78;10263169;28;19922;-65
2022/03/03 01:19:05;;;;;;;;;;;;;;;0.66;80.63;100941.22;10263153;28;19957;-69
2022/03/03 01:24:10;;;;;;;;;;;;;;;0.53;80.91;100937.34;10262880;28;19984;-65
2022/03/03 01:29:15;;;;;;;;;;;;;;;0.54;82.08;100948.41;10262954;28;19933;-69
2022/03/03 01:34:18;;;;;;;;;;;;;;;0.49;82.13;100938.03;10262557;28;20258;-67
2022/03/03 01:39:21;;;;;;;;;;;;;;;0.49;81.73;100932.06;10262308;28;19958;-68
2022/03/03 01:44:25;;;;;;;;;;;;;;;0.44;81.19;100938.66;10262211;28;19945;-67
2022/03/03 01:49:29;;;;;;;;;;;;;;;0.44;79.21;100936.13;10262264;28;20231;-67
2022/03/03 01:54:32;;;;;;;;;;;;;;;0.36;80.05;100935.84;10261855;28;19922;-70
2022/03/03 01:59:37;;;;;;;;;;;;;;;0.33;80.63;100929.72;10261112;28;19922;-65
2022/03/03 02:04:41;;;;;;;;;;;;;;;0.27;79.81;100921.81;10261532;28;20343;-65
2022/03/03 02:09:44;;;;;;;;;;;;;;;0.18;79.83;100917.22;10261334;28;19922;-70
2022/03/03 02:14:49;;;;;;;;;;;;;;;0.18;81.32;100918.88;10260779;28;20270;-67
2022/03/03 02:19:52;;;;;;;;;;;;;;;0.17;82.94;100917.16;10260843;28;19923;-67
2022/03/03 02:24:59;;;;;;;;;;;;;;;0.13;82.54;100917.84;10261649;28;19960;-69
2022/03/03 02:30:03;;;;;;;;;;;;;;;0.10;81.37;100913.50;10260583;28;19933;-67
2022/03/03 02:35:06;;;;;;;;;;;;;;;0.04;82.62;100903.03;10260300;28;19933;-66
2022/03/03 02:40:12;;;;;;;;;;;;;;;0.06;82.76;100892.88;10260228;28;19931;-68
2022/03/03 02:45:15;;;;;;;;;;;;;;;0.03;83.50;100895.31;10260102;28;19941;-66
2022/03/03 02:50:19;;;;;;;;;;;;;;;0.05;84.07;100893.72;10259824;28;19923;-65
2022/03/03 02:55:23;;;;;;;;;;;;;;;-0.01;84.04;100889.22;10259710;28;19933;-67
2022/03/03 03:00:34;;;;;;;;;;;;;;;-0.06;83.95;100894.16;10259572;28;19933;-65
2022/03/03 03:05:38;;;;;;;;;;;;;;;-0.14;84.34;100892.94;10259160;28;19923;-65
2022/03/03 03:10:42;;;;;;;;;;;;;;;-0.16;84.46;100879.28;10258966;28;19926;-68
2022/03/03 03:15:46;;;;;;;;;;;;;;;-0.28;84.86;100875.38;10257950;28;20013;-70
2022/03/03 03:20:50;;;;;;;;;;;;;;;-0.23;86.54;100877.31;10259427;28;19933;-66
2022/03/03 03:25:55;;;;;;;;;;;;;;;-0.22;87.02;100878.16;10258238;28;19932;-69
2022/03/03 03:30:58;;;;;;;;;;;;;;;-0.22;86.90;100866.28;10258314;29;20346;-65
2022/03/03 03:36:01;;;;;;;;;;;;;;;-0.32;86.50;100869.28;10258031;28;19922;-71
2022/03/03 03:41:06;;;;;;;;;;;;;;;-0.28;87.06;100858.41;10258218;28;19922;-66
2022/03/03 03:46:09;;;;;;;;;;;;;;;-0.40;86.35;100862.97;10257656;28;20258;-65
2022/03/03 03:51:12;;;;;;;;;;;;;;;-0.57;88.25;100855.44;10257318;28;19933;-68
2022/03/03 03:56:17;;;;;;;;;;;;;;;-0.55;88.05;100852.13;10256279;28;19922;-65
2022/03/03 04:01:20;;;;;;;;;;;;;;;-0.54;89.46;100846.25;10257664;28;19926;-69
2022/03/03 04:06:23;;;;;;;;;;;;;;;-0.64;88.95;100841.56;10257523;28;19932;-70
2022/03/03 04:11:28;;;;;;;;;;;;;;;-0.73;89.21;100822.47;10256823;28;19922;-67
2022/03/03 04:16:31;;;;;;;;;;;;;;;-0.87;91.50;100829.53;10256707;28;19933;-71
2022/03/03 04:21:34;;;;;;;;;;;;;;;-0.83;91.88;100833.09;10256890;28;20005;-69
2022/03/03 04:26:38;;;;;;;;;;;;;;;-0.84;91.40;100832.22;10256588;28;20258;-65
2022/03/03 04:31:41;;;;;;;;;;;;;;;-0.87;92.38;100819.34;10256608;28;19929;-64
2022/03/03 04:36:44;;;;;;;;;;;;;;;-0.91;92.08;100830.22;10256331;28;19922;-66
2022/03/03 04:41:49;;;;;;;;;;;;;;;-0.91;92.00;100826.78;10256340;28;19929;-66
2022/03/03 04:46:52;;;;;;;;;;;;;;;-0.93;93.06;100824.16;10256520;28;19927;-66
2022/03/03 04:51:55;;;;;;;;;;;;;;;-0.94;92.73;100814.81;10254783;28;20440;-69
2022/03/03 04:56:59;;;;;;;;;;;;;;;-0.95;93.23;100823.25;10253376;28;19933;-66
2022/03/03 05:02:03;;;;;;;;;;;;;;;-1.01;93.63;100811.91;9910718;28;10000380;-66
2022/03/03 05:07:07;;;;;;;;;;;;;;;-1.08;94.45;100807.34;10212958;29;19923;-65
2022/03/03 05:12:11;;;;;;;;;;;;;;;-1.13;94.12;100807.19;10213125;29;20354;-67
2022/03/03 05:17:14;;;;;;;;;;;;;;;-1.10;94.96;100803.91;10212587;29;20373;-66
2022/03/03 05:22:17;;;;;;;;;;;;;;;-1.19;94.35;100805.22;10216223;29;20009;-67
2022/03/03 05:27:22;;;;;;;;;;;;;;;-1.19;95.14;100799.25;10252544;28;20406;-65
2022/03/03 05:32:25;;;;;;;;;;;;;;;-1.17;94.91;100798.53;10233878;28;19923;-68
2022/03/03 05:37:28;;;;;;;;;;;;;;;-1.17;95.56;100805.28;10224323;29;19929;-66
2022/03/03 05:42:32;;;;;;;;;;;;;;;-1.19;96.58;100795.03;10246942;28;19922;-68
2022/03/03 05:47:35;;;;;;;;;;;;;;;-1.19;97.71;100795.03;10239572;28;20569;-65
2022/03/03 05:52:38;;;;;;;;;;;;;;;-1.13;97.56;100798.66;10237187;28;19926;-66
2022/03/03 05:57:45;;;;;;;;;;;;;;;-1.11;97.78;100792.84;10234476;29;20232;-66
2022/03/03 06:02:50;;;;;;;;;;;;;;;-1.05;98.66;100794.78;10237770;28;20365;-68
2022/03/03 06:07:54;;;;;;;;;;;;;;;-1.14;98.40;100790.16;10236921;28;19922;-66
2022/03/03 06:13:06;;;;;;;;;;;;;;;-1.07;100.00;100781.09;10243259;28;20377;-69
2022/03/03 06:18:09;;;;;;;;;;;;;;;-0.88;100.00;100792.13;10237139;28;20410;-65
2022/03/03 06:23:13;;;;;;;;;;;;;;;-0.70;100.00;100790.34;10234542;28;20366;-66
2022/03/03 06:28:17;;;;;;;;;;;;;;;-0.59;100.00;100799.31;10236842;28;19931;-63
2022/03/03 06:33:20;;;;;;;;;;;;;;;-0.46;100.00;100801.53;10240471;28;19929;-69
2022/03/03 06:38:24;;;;;;;;;;;;;;;-0.28;99.12;100788.66;10236384;28;19959;-67
2022/03/03 06:43:29;;;;;;;;;;;;;;;-0.20;98.18;100795.81;10233060;28;19934;-66
2022/03/03 06:48:33;;;;;;;;;;;;;;;-0.09;98.71;100794.53;10237429;28;20351;-67
2022/03/03 06:53:36;;;;;;;;;;;;;;;0.09;98.14;100788.44;10234548;29;20017;-66
2022/03/03 06:58:41;;;;;;;;;;;;;;;0.21;97.95;100794.00;10216796;29;19931;-68
2022/03/03 07:03:45;;;;;;;;;;;;;;;0.27;96.45;100790.00;10246404;29;19926;-67
2022/03/03 07:08:50;;;;;;;;;;;;;;;0.44;95.29;100788.03;10255654;28;20024;-67
2022/03/03 07:13:56;;;;;;;;;;;;;;;0.58;93.21;100784.31;10255717;28;19933;-66
2022/03/03 07:19:02;;;;;;;;;;;;;;;0.76;93.31;100777.34;10255858;28;19922;-69
2022/03/03 07:24:12;;;;;;;;;;;;;;;0.98;90.08;100774.72;10255200;28;19922;-69
2022/03/03 07:29:17;;;;;;;;;;;;;;;1.10;87.99;100780.25;10255024;29;20424;-68
2022/03/03 07:34:26;;;;;;;;;;;;;;;1.20;83.63;100772.06;10255308;28;20349;-67
2022/03/03 07:39:33;;;;;;;;;;;;;;;1.36;82.36;100776.00;10255257;28;19922;-67
2022/03/03 07:44:38;;;;;;;;;;;;;;;1.46;80.52;100778.03;10219418;28;19927;-67
2022/03/03 07:49:41;;;;;;;;;;;;;;;1.59;81.13;100782.75;10214507;29;19973;-70
2022/03/03 07:54:44;;;;;;;;;;;;;;;1.59;81.88;100783.59;10236427;29;19929;-66
2022/03/03 07:59:55;;;;;;;;;;;;;;;1.73;79.16;100784.91;10253540;28;19970;-65
2022/03/03 08:05:00;;;;;;;;;;;;;;;1.86;78.17;100784.50;10253962;28;20358;-67
2022/03/03 08:10:03;;;;;;;;;;;;;;;2.18;74.70;100773.53;10254041;29;20021;-63
2022/03/03 08:15:10;;;;;;;;;;;;;;;2.48;72.34;100773.56;10253409;28;19926;-67
2022/03/03 08:20:13;;;;;;;;;;;;;;;2.76;70.80;100762.38;10253476;28;20376;-66
2022/03/03 08:25:17;;;;;;;;;;;;;;;2.84;69.86;100758.31;10253134;29;19929;-64
2022/03/03 08:30:22;;;;;;;;;;;;;;;2.86;70.13;100754.13;10253290;29;20270;-67
2022/03/03 08:35:27;;;;;;;;;;;;;;;2.91;70.53;100755.09;10253115;29;19926;-65
2022/03/03 08:40:31;;;;;;;;;;;;;;;3.01;69.60;100742.56;10249750;28;19934;-66
2022/03/03 08:45:36;;;;;;;;;;;;;;;3.18;67.68;100735.31;10213305;29;19923;-66
2022/03/03 08:50:40;;;;;;;;;;;;;;;3.15;64.80;100736.09;10213675;29;20331;-64
2022/03/03 08:55:43;;;;;;;;;;;;;;;3.23;63.58;100742.28;10213241;29;19922;-65
2022/03/03 09:00:50;;;;;;;;;;;;;;;3.22;62.17;100738.00;10213327;29;20357;-65
2022/03/03 09:05:56;;;;;;;;;;;;;;;3.52;61.88;100728.47;10245195;29;19958;-68
2022/03/03 09:11:00;;;;;;;;;;;;;;;3.89;60.14;100731.88;10254953;28;19923;-64
2022/03/03 09:16:04;;;;;;;;;;;;;;;3.96;58.36;100719.22;10259899;28;19937;-65
2022/03/03 09:21:07;;;;;;;;;;;;;;;4.34;57.37;100723.50;10260157;28;19984;-63
2022/03/03 09:26:11;;;;;;;;;;;;;;;4.74;56.41;100713.13;10259640;28;20339;-64
2022/03/03 09:31:15;;;;;;;;;;;;;;;5.35;54.51;100703.94;10259324;28;19932;-63
2022/03/03 09:36:19;;;;;;;;;;;;;;;6.10;54.45;100712.81;10259267;29;19952;-66
2022/03/03 09:41:22;;;;;;;;;;;;;;;6.42;50.83;100702.94;10259117;28;19923;-65
2022/03/03 09:46:26;;;;;;;;;;;;;;;6.95;51.56;100707.81;10259181;28;20014;-65
2022/03/03 09:51:29;;;;;;;;;;;;;;;7.24;51.10;100696.88;10259136;28;19969;-66
2022/03/03 09:56:33;;;;;;;;;;;;;;;7.69;49.74;100697.25;10258679;28;20306;-66
2022/03/03 10:01:37;;;;;;;28.53;13.77;;;;;;;8.31;48.80;100688.16;10258157;28;20206;-67
2022/03/03 10:06:41;;;;;;;28.83;14.73;;;;;;;8.63;48.01;100686.53;10257686;28;20228;-66
2022/03/03 10:11:59;;;;;;;36.40;16.30;;;;;;;9.08;47.75;100676.28;10257520;28;20242;-66
2022/03/03 10:17:05;;;;;;;30.57;15.20;;;;;;;9.27;45.71;100678.03;10257608;28;20243;-66
2022/03/03 10:22:17;;;;;;;26.67;14.53;;;;;;;9.22;45.48;100661.63;10256854;28;20311;-63
2022/03/03 10:27:20;;;;;;;35.90;14.77;;;;;;;9.60;45.36;100665.91;10257126;28;20234;-64
2022/03/03 10:32:26;;;;;;;27.20;14.40;;;;;;;10.09;43.61;100670.16;10256801;28;20212;-67
2022/03/03 10:37:32;;;;;;;27.73;14.23;;;;;;;10.64;44.67;100661.28;10256459;28;20238;-64
2022/03/03 10:42:38;;;;;;;30.20;15.33;;;;;;;11.08;42.91;100661.84;10256713;29;20227;-66
2022/03/03 10:47:46;;;;;;;32.83;15.03;;;;;;;11.09;42.62;100663.56;10256214;28;20220;-66
2022/03/03 10:52:49;;;;;;;26.17;14.80;;;;;;;11.50;41.17;100664.09;10256738;29;20229;-64
2022/03/03 10:57:57;;;;;;;26.00;13.17;;;;;;;11.77;40.94;100660.38;10256104;28;20231;-64
2022/03/03 11:03:03;;;;;;;24.57;14.27;;;;;;;12.14;41.01;100656.53;10255414;28;20258;-64
2022/03/03 11:08:07;;;;;;;27.70;13.77;;;;;;;12.44;40.06;100656.13;10255395;28;20232;-65
2022/03/03 11:13:10;;;;;;;27.67;14.47;;;;;;;12.51;41.13;100656.94;10255154;28;20307;-67
2022/03/03 11:18:18;;;;;;;25.63;14.80;;;;;;;12.82;40.81;100642.59;10255051;28;20242;-64
2022/03/03 11:23:22;;;;;;;24.80;14.77;;;;;;;13.14;40.44;100640.38;10254549;28;20316;-64
2022/03/03 11:28:35;;;;;;;23.70;14.63;;;;;;;13.73;39.28;100645.44;10292349;28;20230;-65
2022/03/03 11:33:43;;;;;;;26.93;14.87;;;;;;;13.84;39.98;100635.66;10293761;28;20219;-65
2022/03/03 11:38:52;;;;;;;24.90;14.77;;;;;;;14.39;39.77;100635.44;10294534;28;20229;-65
2022/03/03 11:44:01;;;;;;;33.07;16.90;;;;;;;14.43;39.74;100636.22;10295204;28;20289;-67
2022/03/03 11:49:12;;;;;;;31.23;17.47;;;;;;;13.93;40.60;100630.28;10296865;28;20219;-65
2022/03/03 11:54:24;;;;;;;25.20;15.77;;;;;;;14.04;40.55;100639.63;10296872;28;20310;-65
2022/03/03 11:59:34;;;;;;;27.73;16.47;;;;;;;13.37;40.81;100632.19;10297112;28;20718;-67
2022/03/03 12:04:39;;;;;;;26.20;16.17;;;;;;;11.91;43.85;100639.47;10293369;28;20237;-67
2022/03/03 12:09:42;;;;;;;26.23;16.83;;;;;;;12.95;42.12;100631.09;10293210;28;20227;-64
2022/03/03 12:14:52;;;;;;;30.20;17.97;;;;;;;13.57;42.13;100625.75;10293336;28;20235;-65
2022/03/03 12:20:34;;;;;;;26.50;17.87;;;;;;;13.24;42.75;100626.31;10251429;29;20232;-62
2022/03/03 12:26:02;;;;;;;32.10;17.80;;;;;;;13.35;42.04;100623.53;10253068;28;20220;-61
2022/03/03 12:31:22;;;;;;;29.40;18.47;;;;;;;12.02;45.30;100634.97;10252713;28;20222;-64
2022/03/03 12:36:27;;;;;;;34.27;19.17;;;;;;;13.18;43.91;100630.78;10253078;28;20195;-62
2022/03/03 12:41:33;;;;;;;30.87;17.37;;;;;;;12.65;43.48;100637.63;10252529;28;20276;-69
2022/03/03 12:46:37;;;;;;;32.60;18.77;;;;;;;12.57;43.20;100636.88;10257032;28;20283;-64
2022/03/03 12:51:45;;;;;;;27.30;18.00;;;;;;;12.99;44.20;100637.13;10248129;28;20691;-64
2022/03/03 12:56:59;;;;;;;27.87;16.97;;;;;;;11.50;45.46;100647.63;10221070;29;20279;-65
2022/03/03 13:02:03;;;;;;;31.80;18.13;;;;;;;11.88;45.97;100647.28;10220284;29;20299;-66
2022/03/03 13:07:11;;;;;;;28.17;16.80;;;;;;;10.34;47.47;100653.63;10220586;29;20204;-65
2022/03/03 13:12:15;;;;;;;30.73;16.83;;;;;;;9.32;49.56;100654.69;10220075;29;20603;-66
2022/03/03 13:17:18;;;;;;;25.50;15.63;;;;;;;9.02;49.90;100659.88;10219710;29;20695;-67
2022/03/03 13:22:23;;;;;;;26.87;15.60;;;;;;;8.34;50.80;100659.72;10227972;29;20559;-67
2022/03/03 13:27:26;;;;;;;24.47;15.50;;;;;;;7.88;51.45;100658.63;10258773;28;20217;-67
2022/03/03 13:32:44;;;;;;;31.67;16.10;;;;;;;7.59;53.19;100661.88;10230611;28;20217;-66
2022/03/03 13:37:50;;;;;;;29.10;15.40;;;;;;;7.62;52.41;100661.91;10258775;29;20250;-65
2022/03/03 13:42:57;;;;;;;24.90;13.57;;;;;;;7.47;52.46;100666.97;10253717;28;20529;-67
2022/03/03 13:48:06;;;;;;;26.43;13.63;;;;;;;7.15;54.64;100664.13;10257518;28;20224;-68
2022/03/03 13:53:23;;;;;;;26.40;13.37;;;;;;;7.01;53.85;100666.59;10257379;28;20668;-66
2022/03/03 13:58:27;;;;;;;28.03;13.53;;;;;;;6.59;55.71;100689.34;10236238;28;20770;-67
2022/03/03 14:03:35;;;;;;;;;;;;;;;6.12;58.07;100693.09;10236840;28;20438;-66
2022/03/03 14:08:44;;;;;;;;;;;;;;;5.88;60.38;100691.03;10244322;29;19927;-68
2022/03/03 14:13:49;;;;;;;;;;;;;;;5.43;60.25;100694.63;10236950;28;19927;-63
2022/03/03 14:18:53;;;;;;;;;;;;;;;5.30;60.76;100695.25;10240853;29;19922;-64
2022/03/03 14:23:57;;;;;;;;;;;;;;;5.29;61.28;100694.41;10235756;28;19929;-68
2022/03/03 14:29:20;;;;;;;;;;;;;;;5.35;61.41;100689.34;10237816;28;19932;-65
2022/03/03 14:34:23;;;;;;;;;;;;;;;5.28;62.55;100687.50;10233450;29;20391;-65
2022/03/03 14:39:28;;;;;;;;;;;;;;;5.10;64.43;100688.91;10241250;28;20060;-66
2022/03/03 14:44:31;;;;;;;;;;;;;;;4.79;64.33;100694.38;10243467;29;19941;-66
2022/03/03 14:49:34;;;;;;;;;;;;;;;4.66;64.95;100693.25;10237154;28;19922;-66
2022/03/03 14:54:39;;;;;;;;;;;;;;;4.40;66.33;100694.50;10238030;29;19967;-67
2022/03/03 14:59:42;;;;;;;;;;;;;;;4.29;67.50;100699.41;10239313;28;19945;-68
2022/03/03 15:04:45;;;;;;;;;;;;;;;4.28;68.95;100696.81;10235003;29;20005;-64
2022/03/03 15:09:49;;;;;;;;;;;;;;;4.23;68.07;100696.69;10232396;28;20355;-66
2022/03/03 15:14:52;;;;;;;;;;;;;;;4.10;70.01;100705.00;10235723;28;19973;-68
2022/03/03 15:19:55;;;;;;;;;;;;;;;3.81;71.09;100700.94;10234626;29;20002;-70
2022/03/03 15:25:00;;;;;;;;;;;;;;;3.84;70.62;100706.13;10235736;28;20025;-65
2022/03/03 15:30:04;;;;;;;;;;;;;;;4.00;69.94;100703.06;10233248;28;19930;-67
2022/03/03 15:40:30;;;;;;;;;;;;;;;3.93;71.07;100705.47;10232952;29;19946;-67
2022/03/03 15:45:33;;;;;;;;;;;;;;;4.06;71.09;100698.06;10231093;28;19977;-64
2022/03/03 15:50:39;;;;;;;;;;;;;;;4.07;71.08;100699.78;10264378;28;20455;-65
2022/03/03 15:55:43;;;;;;;;;;;;;;;3.93;72.19;100701.22;10254601;29;20022;-63
2022/03/03 16:00:46;;;;;;;;;;;;;;;3.89;70.95;100709.66;10254287;28;19926;-64
2022/03/03 16:05:52;;;;;;;;;;;;;;;3.81;72.24;100713.78;10254083;28;19922;-67
2022/03/03 16:10:56;;;;;;;;;;;;;;;3.75;72.68;100716.19;10253958;29;19933;-65
2022/03/03 16:15:59;;;;;;;;;;;;;;;3.59;74.29;100731.19;10253450;29;20400;-66
2022/03/03 16:21:03;;;;;;;;;;;;;;;3.73;73.44;100722.13;10252712;28;19954;-65
2022/03/03 16:26:08;;;;;;;;;;;;;;;3.85;73.49;100717.28;10253098;28;19922;-67
2022/03/03 16:31:26;;;;;;;;;;;;;;;3.85;75.10;100723.25;10253687;29;19927;-66
2022/03/03 16:36:29;;;;;;;;;;;;;;;3.90;73.93;100726.78;10253354;29;19957;-65
2022/03/03 16:41:34;;;;;;;;;;;;;;;3.68;75.10;100724.56;10253211;29;19922;-65
2022/03/03 16:46:37;;;;;;;;;;;;;;;3.67;76.68;100732.25;10252585;29;19965;-64
2022/03/03 16:51:42;;;;;;;;;;;;;;;3.71;76.03;100732.34;10253027;29;20018;-63
2022/03/03 16:56:47;;;;;;;;;;;;;;;3.75;76.80;100739.28;10252581;28;20368;-66
2022/03/03 17:01:50;;;;;;;;;;;;;;;3.76;77.13;100740.16;10252415;29;19933;-65
2022/03/03 17:06:53;;;;;;;;;;;;;;;3.85;75.73;100742.94;10253156;28;20410;-68
2022/03/03 17:11:58;;;;;;;;;;;;;;;3.78;75.77;100748.78;10252561;28;19922;-66
2022/03/03 17:17:01;;;;;;;;;;;;;;;3.78;76.18;100741.06;10252112;28;19926;-67
2022/03/03 17:22:05;;;;;;;;;;;;;;;3.67;75.97;100740.81;10252799;29;20038;-65
2022/03/03 17:27:09;;;;;;;;;;;;;;;3.73;76.55;100743.50;10252498;28;20484;-67
2022/03/03 17:32:12;;;;;;;;;;;;;;;3.76;76.03;100753.00;10230832;28;19927;-67
2022/03/03 17:37:16;;;;;;;;;;;;;;;3.71;77.39;100750.28;10220308;29;19923;-64
2022/03/03 17:42:22;;;;;;;;;;;;;;;3.76;76.36;100748.75;10219450;29;20366;-64
2022/03/03 17:47:26;;;;;;;;;;;;;;;3.65;77.57;100744.16;10220304;29;20012;-64
2022/03/03 17:52:29;;;;;;;;;;;;;;;3.63;76.50;100749.25;10247275;29;20332;-64
2022/03/03 17:57:33;;;;;;;;;;;;;;;3.74;76.22;100754.66;10246384;28;19933;-68
2022/03/03 18:02:36;;;;;;;;;;;;;;;3.73;75.58;100760.63;10240813;28;20350;-68
2022/03/03 18:07:40;;;;;;;;;;;;;;;3.68;76.82;100754.50;10236001;28;20020;-64
2022/03/03 18:12:44;;;;;;;;;;;;;;;3.59;77.47;100764.56;10238245;29;20022;-66
2022/03/03 18:17:47;;;;;;;;;;;;;;;3.63;77.02;100782.63;10245618;28;19922;-66
2022/03/03 18:22:50;;;;;;;;;;;;;;;3.62;78.24;100777.47;10245033;28;20013;-65
2022/03/03 18:27:55;;;;;;;;;;;;;;;3.56;77.44;100785.88;10235878;29;20325;-67
2022/03/03 18:32:58;;;;;;;;;;;;;;;3.64;75.80;100773.22;10237353;29;19923;-67
2022/03/03 18:38:01;;;;;;;;;;;;;;;3.51;76.33;100792.59;10240391;28;20418;-66
2022/03/03 18:43:06;;;;;;;;;;;;;;;3.30;75.21;100766.38;10255720;28;19976;-66
2022/03/03 18:48:10;;;;;;;;;;;;;;;3.26;76.89;100764.59;10257022;28;20010;-67
2022/03/03 18:53:13;;;;;;;;;;;;;;;2.99;77.43;100775.00;10279376;28;20334;-69
2022/03/03 18:58:18;;;;;;;;;;;;;;;3.09;76.87;100771.00;10257109;28;20024;-69
2022/03/03 19:03:21;;;;;;;;;;;;;;;3.06;76.75;100782.00;10255862;28;20410;-66
2022/03/03 19:08:24;;;;;;;;;;;;;;;3.04;78.31;100795.59;10256298;28;19966;-67
2022/03/03 19:13:29;;;;;;;;;;;;;;;3.10;77.69;100794.09;10255721;28;19974;-68
2022/03/03 19:18:33;;;;;;;;;;;;;;;3.06;78.64;100794.84;10255470;28;19941;-66
2022/03/03 19:23:39;;;;;;;;;;;;;;;2.94;79.97;100801.31;10255832;29;19922;-70
2022/03/03 19:28:44;;;;;;;;;;;;;;;3.08;79.51;100805.13;10255014;29;19922;-66
2022/03/03 19:39:08;;;;;;;;;;;;;;;3.12;81.12;100815.50;10255067;28;19941;-68
2022/03/03 19:44:13;;;;;;;;;;;;;;;3.16;80.87;100811.31;10254742;29;19937;-66
2022/03/03 19:49:16;;;;;;;;;;;;;;;3.10;80.52;100827.44;10255237;28;19929;-65
2022/03/03 19:54:20;;;;;;;;;;;;;;;3.08;80.97;100821.38;10253896;28;19922;-67
2022/03/03 19:59:24;;;;;;;;;;;;;;;3.15;81.30;100820.72;10254102;28;19981;-65
2022/03/03 20:04:29;;;;;;;;;;;;;;;3.02;80.61;100825.50;10254247;28;19977;-64
2022/03/03 20:14:54;;;;;;;;;;;;;;;3.06;82.37;100819.59;10253659;29;19926;-65
2022/03/03 20:19:57;;;;;;;;;;;;;;;3.07;81.38;100819.63;10253826;28;20370;-65
2022/03/03 20:25:00;;;;;;;;;;;;;;;3.07;81.59;100824.75;10253917;28;19922;-68
2022/03/03 20:30:06;;;;;;;;;;;;;;;3.04;82.76;100819.56;10253319;28;19984;-66
2022/03/03 20:35:10;;;;;;;;;;;;;;;3.02;82.57;100821.22;10253639;28;20355;-67
2022/03/03 20:40:15;;;;;;;;;;;;;;;3.00;80.56;100822.00;10253041;28;19930;-66
2022/03/03 20:45:19;;;;;;;;;;;;;;;3.01;79.66;100816.91;10253151;28;20236;-67
2022/03/03 20:50:23;;;;;;;;;;;;;;;2.85;79.99;100817.31;10253151;28;19927;-70
2022/03/03 20:55:26;;;;;;;;;;;;;;;2.90;80.63;100818.31;10253226;28;20254;-65
2022/03/03 21:00:31;;;;;;;;;;;;;;;2.83;78.36;100816.41;10252731;28;19958;-67
2022/03/03 21:05:34;;;;;;;;;;;;;;;2.86;78.91;100818.19;10254483;28;19922;-67
2022/03/03 21:10:39;;;;;;;;;;;;;;;2.86;77.61;100813.94;10260368;28;20342;-64
2022/03/03 21:15:45;;;;;;;;;;;;;;;2.86;78.26;100813.06;10253008;28;19941;-68
2022/03/03 21:20:49;;;;;;;;;;;;;;;2.91;78.54;100808.94;10220867;29;19973;-65
2022/03/03 21:25:53;;;;;;;;;;;;;;;2.94;79.25;100809.88;10220405;29;19931;-66
2022/03/03 21:30:58;;;;;;;;;;;;;;;2.99;77.32;100805.75;10219973;29;20231;-67
2022/03/03 21:36:01;;;;;;;;;;;;;;;2.88;76.63;100802.00;10220146;29;19922;-67
2022/03/03 21:41:05;;;;;;;;;;;;;;;2.99;75.57;100802.31;10219912;28;19922;-67
2022/03/03 21:46:09;;;;;;;;;;;;;;;2.94;76.37;100799.63;10266967;28;20274;-66
2022/03/03 21:51:12;;;;;;;;;;;;;;;2.89;74.74;100795.19;10259296;29;20395;-67
2022/03/03 21:56:16;;;;;;;;;;;;;;;2.78;76.49;100787.22;10259062;29;19926;-64
2022/03/03 22:01:21;;;;;;;;;;;;;;;2.95;76.79;100800.50;10258919;29;19922;-66
2022/03/03 22:06:24;;;;;;;;;;;;;;;2.95;77.05;100801.34;10257832;29;19944;-73
2022/03/03 22:11:28;;;;;;;;;;;;;;;2.82;76.70;100814.66;10258403;29;19923;-73
2022/03/03 22:16:33;;;;;;;;;;;;;;;2.88;78.05;100806.28;10244064;29;19922;-70
2022/03/03 22:21:37;;;;;;;;;;;;;;;2.85;78.59;100789.13;10218367;29;19933;-66
2022/03/03 22:26:40;;;;;;;;;;;;;;;2.86;78.34;100787.44;10218182;29;19933;-65
2022/03/03 22:31:46;;;;;;;;;;;;;;;2.80;78.04;100789.81;10218199;29;19965;-64
2022/03/03 22:36:49;;;;;;;;;;;;;;;2.85;78.59;100791.69;10225485;29;19929;-66
2022/03/03 22:41:52;;;;;;;;;;;;;;;2.81;77.73;100789.88;10256956;28;19922;-67
2022/03/03 22:46:57;;;;;;;;;;;;;;;2.95;79.04;100787.69;10257213;28;19929;-68
2022/03/03 22:57:17;;;;;;;;;;;;;;;3.02;79.02;100782.75;10255637;28;19930;-67
2022/03/03 23:02:22;;;;;;;;;;;;;;;3.11;78.14;100784.69;10256292;29;19934;-67
2022/03/03 23:07:25;;;;;;;;;;;;;;;3.03;77.97;100781.06;10255907;28;19926;-65
2022/03/03 23:12:28;;;;;;;;;;;;;;;2.92;76.83;100774.78;10255757;29;19922;-67
2022/03/03 23:17:33;;;;;;;;;;;;;;;2.84;75.96;100772.03;10255667;29;19929;-68
2022/03/03 23:22:36;;;;;;;;;;;;;;;2.83;76.77;100774.53;10256147;28;19926;-67
2022/03/03 23:27:40;;;;;;;;;;;;;;;2.85;77.25;100765.19;10255754;28;19933;-66
2022/03/03 23:32:44;;;;;;;;;;;;;;;2.90;77.44;100759.34;10254556;28;19933;-68
2022/03/03 23:37:47;;;;;;;;;;;;;;;2.93;77.60;100763.72;10255047;28;19923;-65
2022/03/03 23:42:50;;;;;;;;;;;;;;;2.96;78.71;100771.47;10254943;28;19922;-66
2022/03/03 23:47:55;;;;;;;;;;;;;;;2.99;78.05;100771.53;10254564;28;20351;-68
2022/03/03 23:52:58;;;;;;;;;;;;;;;3.06;79.69;100771.75;10254569;28;19977;-67
2022/03/03 23:58:01;;;;;;;;;;;;;;;3.16;79.25;100771.16;10257416;28;19922;-69
